createdAt,value
2023-04-14T00:00:46.106Z,100346.28
2023-04-14T00:03:13.370Z,100356.50
2023-04-14T00:05:40.621Z,100355.69
2023-04-14T00:08:07.895Z,100355.91
2023-04-14T00:10:34.983Z,100371.25
2023-04-14T00:13:02.243Z,100371.81
2023-04-14T00:15:29.320Z,100388.75
2023-04-14T00:17:56.298Z,100382.13
2023-04-14T00:20:23.376Z,100387.56
2023-04-14T00:22:50.282Z,100383.00
2023-04-14T00:25:17.404Z,100387.06
2023-04-14T00:27:44.427Z,100387.63
2023-04-14T00:30:11.944Z,100389.81
2023-04-14T00:32:39.627Z,100393.31
2023-04-14T00:35:07.049Z,100399.22
2023-04-14T00:37:34.312Z,100397.44
2023-04-14T00:40:01.356Z,100395.91
2023-04-14T00:42:28.461Z,100403.44
2023-04-14T00:44:55.453Z,100393.31
2023-04-14T00:47:23.141Z,100396.56
2023-04-14T00:49:51.241Z,100398.19
2023-04-14T00:52:21.869Z,100405.72
2023-04-14T00:54:49.757Z,100405.97
2023-04-14T00:57:17.198Z,100399.91
2023-04-14T00:59:44.393Z,100401.88
2023-04-14T01:02:12.957Z,100391.41
2023-04-14T01:04:52.224Z,100396.25
2023-04-14T01:07:23.429Z,100397.31
2023-04-14T01:09:52.066Z,100392.53
2023-04-14T01:12:46.901Z,100397.41
2023-04-14T01:15:47.974Z,100394.16
2023-04-14T01:18:50.252Z,100394.66
2023-04-14T01:21:36.115Z,100391.97
2023-04-14T01:24:37.786Z,100395.78
2023-04-14T01:27:39.859Z,100395.22
2023-04-14T01:30:35.696Z,100391.41
2023-04-14T01:33:07.297Z,100392.53
2023-04-14T01:35:41.921Z,100390.91
2023-04-14T01:38:23.726Z,100389.28
2023-04-14T01:40:57.431Z,100406.22
2023-04-14T01:43:31.050Z,100403.31
2023-04-14T01:46:01.246Z,100398.53
2023-04-14T01:48:29.513Z,100400.97
2023-04-14T01:50:58.723Z,100398.84
2023-04-14T01:53:27.846Z,100394.81
2023-04-14T01:55:56.333Z,100401.84
2023-04-14T01:58:23.970Z,100395.44
2023-04-14T02:00:52.819Z,100404.38
2023-04-14T02:03:21.938Z,100401.44
2023-04-14T02:05:52.668Z,100406.31
2023-04-14T02:08:21.524Z,100413.28
2023-04-14T02:10:50.722Z,100409.31
2023-04-14T02:13:20.097Z,100402.56
2023-04-14T02:15:49.248Z,100401.06
2023-04-14T02:18:23.459Z,100407.53
2023-04-14T02:20:52.603Z,100416.13
2023-04-14T02:23:19.642Z,100411.34
2023-04-14T02:25:56.208Z,100409.22
2023-04-14T02:28:28.957Z,100412.97
2023-04-14T02:30:59.440Z,100416.13
2023-04-14T02:33:31.847Z,100417.50
2023-04-14T02:36:04.668Z,100418.88
2023-04-14T02:38:48.375Z,100420.25
2023-04-14T02:41:25.869Z,100426.97
2023-04-14T02:44:27.182Z,100418.94
2023-04-14T02:47:19.324Z,100431.03
2023-04-14T02:49:48.421Z,100432.66
2023-04-14T02:52:22.194Z,100428.09
2023-04-14T02:54:51.448Z,100435.16
2023-04-14T02:57:19.253Z,100430.84
2023-04-14T02:59:49.882Z,100424.44
2023-04-14T03:02:19.067Z,100427.19
2023-04-14T03:04:53.307Z,100416.50
2023-04-14T03:07:29.537Z,100409.03
2023-04-14T03:09:57.238Z,100413.31
2023-04-14T03:12:25.666Z,100416.56
2023-04-14T03:14:54.126Z,100425.00
2023-04-14T03:17:23.518Z,100427.44
2023-04-14T03:19:52.609Z,100410.00
2023-04-14T03:22:22.068Z,100429.56
2023-04-14T03:24:50.705Z,100423.88
2023-04-14T03:27:22.716Z,100423.41
2023-04-14T03:29:55.093Z,100419.59
2023-04-14T03:32:27.033Z,100422.59
2023-04-14T03:34:58.100Z,100433.84
2023-04-14T03:37:27.951Z,100419.09
2023-04-14T03:40:00.829Z,100411.63
2023-04-14T03:42:32.684Z,100415.59
2023-04-14T03:45:01.573Z,100420.72
2023-04-14T03:47:31.831Z,100421.28
2023-04-14T03:50:03.529Z,100414.63
2023-04-14T03:52:35.868Z,100414.63
2023-04-14T03:55:08.792Z,100416.25
2023-04-14T03:57:39.332Z,100414.94
2023-04-14T04:00:09.004Z,100401.00
2023-04-14T04:02:45.185Z,100403.41
2023-04-14T04:05:13.291Z,100413.88
2023-04-14T04:07:41.875Z,100415.50
2023-04-14T04:10:10.100Z,100410.94
2023-04-14T04:12:39.366Z,100392.22
2023-04-14T04:15:09.113Z,100403.72
2023-04-14T04:17:38.495Z,100403.47
2023-04-14T04:20:16.534Z,100389.28
2023-04-14T04:22:51.440Z,100391.97
2023-04-14T04:25:19.652Z,100396.81
2023-04-14T04:27:54.851Z,100399.19
2023-04-14T04:30:24.190Z,100413.94
2023-04-14T04:32:52.023Z,100405.91
2023-04-14T04:35:21.270Z,100398.63
2023-04-14T04:37:49.926Z,100399.75
2023-04-14T04:40:17.722Z,100402.66
2023-04-14T04:42:45.402Z,100404.84
2023-04-14T04:45:36.473Z,100403.25
2023-04-14T04:48:04.418Z,100405.09
2023-04-14T04:50:31.480Z,100394.63
2023-04-14T04:52:58.530Z,100383.63
2023-04-14T04:55:25.650Z,100396.00
2023-04-14T04:57:52.558Z,100393.59
2023-04-14T05:00:22.918Z,100395.50
2023-04-14T05:02:50.148Z,100400.06
2023-04-14T05:05:17.274Z,100398.25
2023-04-14T05:07:44.255Z,100403.94
2023-04-14T05:10:11.382Z,100389.97
2023-04-14T05:12:38.406Z,100394.03
2023-04-14T05:15:08.527Z,100395.97
2023-04-14T05:17:37.012Z,100389.22
2023-04-14T05:20:05.897Z,100403.50
2023-04-14T05:22:33.080Z,100403.25
2023-04-14T05:25:00.208Z,100399.50
2023-04-14T05:27:27.531Z,100404.94
2023-04-14T05:29:54.793Z,100407.91
2023-04-14T05:32:22.150Z,100402.56
2023-04-14T05:34:49.182Z,100406.09
2023-04-14T05:37:16.943Z,100408.78
2023-04-14T05:39:44.063Z,100398.38
2023-04-14T05:42:11.075Z,100416.16
2023-04-14T05:44:38.051Z,100410.31
2023-04-14T05:47:05.793Z,100400.94
2023-04-14T05:49:32.692Z,100407.44
2023-04-14T05:51:59.738Z,100399.47
2023-04-14T05:54:26.788Z,100396.78
2023-04-14T05:56:53.757Z,100396.84
2023-04-14T05:59:20.940Z,100401.94
2023-04-14T06:01:48.015Z,100398.47
2023-04-14T06:04:15.753Z,100396.59
2023-04-14T06:06:42.875Z,100399.06
2023-04-14T06:09:09.991Z,100406.88
2023-04-14T06:11:37.885Z,100400.19
2023-04-14T06:14:07.450Z,100405.34
2023-04-14T06:16:34.882Z,100420.41
2023-04-14T06:19:01.887Z,100420.16
2023-04-14T06:21:29.188Z,100415.41
2023-04-14T06:23:56.101Z,100406.03
2023-04-14T06:26:23.143Z,100416.56
2023-04-14T06:28:50.304Z,100419.25
2023-04-14T06:31:17.371Z,100421.97
2023-04-14T06:33:44.363Z,100412.63
2023-04-14T06:36:11.693Z,100426.38
2023-04-14T06:38:38.746Z,100418.88
2023-04-14T06:41:05.872Z,100420.56
2023-04-14T06:43:33.087Z,100424.91
2023-04-14T06:46:00.266Z,100432.19
2023-04-14T06:48:28.223Z,100422.56
2023-04-14T06:50:56.309Z,100421.25
2023-04-14T06:53:23.742Z,100415.34
2023-04-14T06:56:08.900Z,100417.28
2023-04-14T06:58:36.258Z,100420.75
2023-04-14T07:01:04.226Z,100415.13
2023-04-14T07:03:31.705Z,100420.81
2023-04-14T07:06:11.903Z,100425.41
2023-04-14T07:08:40.539Z,100417.91
2023-04-14T07:11:10.923Z,100415.00
2023-04-14T07:13:39.442Z,100423.06
2023-04-14T07:16:08.404Z,100420.97
2023-04-14T07:18:36.156Z,100413.22
2023-04-14T07:21:03.459Z,100411.88
2023-04-14T07:23:31.296Z,100407.31
2023-04-14T07:25:59.665Z,100422.66
2023-04-14T07:28:28.060Z,100414.59
2023-04-14T07:30:55.435Z,100425.88
2023-04-14T07:33:22.875Z,100418.09
2023-04-14T07:36:01.996Z,100432.66
2023-04-14T07:38:33.113Z,100428.09
2023-04-14T07:41:04.328Z,100433.75
2023-04-14T07:43:38.708Z,100438.03
2023-04-14T07:46:07.529Z,100431.09
2023-04-14T07:48:36.475Z,100443.47
2023-04-14T07:51:05.166Z,100432.75
2023-04-14T07:53:33.209Z,100444.06
2023-04-14T07:56:00.733Z,100440.56
2023-04-14T07:58:29.268Z,100434.13
2023-04-14T08:00:57.385Z,100441.09
2023-04-14T08:03:25.019Z,100433.31
2023-04-14T08:05:52.414Z,100440.00
2023-04-14T08:08:19.797Z,100433.56
2023-04-14T08:10:46.791Z,100430.59
2023-04-14T08:13:13.788Z,100417.16
2023-04-14T08:15:40.975Z,100419.31
2023-04-14T08:18:08.642Z,100412.38
2023-04-14T08:20:36.084Z,100416.94
2023-04-14T08:23:03.271Z,100424.19
2023-04-14T08:25:30.660Z,100414.50
2023-04-14T08:27:57.962Z,100418.00
2023-04-14T08:30:25.042Z,100413.44
2023-04-14T08:32:52.351Z,100419.34
2023-04-14T08:35:38.395Z,100406.19
2023-04-14T08:38:06.257Z,100408.88
2023-04-14T08:40:39.750Z,100420.72
2023-04-14T08:43:07.666Z,100409.41
2023-04-14T08:45:35.957Z,100407.53
2023-04-14T08:48:05.733Z,100407.81
2023-04-14T08:50:49.740Z,100401.13
2023-04-14T08:53:18.615Z,100387.91
2023-04-14T08:55:46.058Z,100394.94
2023-04-14T08:58:13.419Z,100380.97
2023-04-14T09:00:41.244Z,100387.69
2023-04-14T09:03:11.598Z,100389.84
2023-04-14T09:05:38.925Z,100391.75
2023-04-14T09:08:06.257Z,100400.06
2023-04-14T09:10:35.661Z,100400.88
2023-04-14T09:13:04.931Z,100392.25
2023-04-14T09:15:32.923Z,100395.47
2023-04-14T09:18:00.029Z,100388.47
2023-04-14T09:20:34.485Z,100399.50
2023-04-14T09:23:04.602Z,100392.47
2023-04-14T09:25:32.293Z,100402.13
2023-04-14T09:27:59.543Z,100395.97
2023-04-14T09:30:27.107Z,100394.06
2023-04-14T09:32:54.188Z,100398.03
2023-04-14T09:35:21.178Z,100394.25
2023-04-14T09:37:48.783Z,100398.56
2023-04-14T09:40:28.001Z,100404.22
2023-04-14T09:42:57.738Z,100391.84
2023-04-14T09:45:45.267Z,100398.34
2023-04-14T09:48:15.658Z,100389.16
2023-04-14T09:51:09.732Z,100392.97
2023-04-14T09:53:38.357Z,100392.19
2023-04-14T09:56:11.489Z,100393.28
2023-04-14T09:58:43.841Z,100382.78
2023-04-14T10:01:19.275Z,100391.38
2023-04-14T10:03:48.637Z,100388.09
2023-04-14T10:06:17.859Z,100387.06
2023-04-14T10:08:48.658Z,100381.91
2023-04-14T10:11:26.309Z,100389.75
2023-04-14T10:14:06.401Z,100384.88
2023-04-14T10:16:34.200Z,100393.47
2023-04-14T10:19:02.118Z,100388.09
2023-04-14T10:21:29.898Z,100392.19
2023-04-14T10:23:58.007Z,100379.28
2023-04-14T10:26:26.289Z,100372.31
2023-04-14T10:28:56.066Z,100380.13
2023-04-14T10:31:38.715Z,100367.78
2023-04-14T10:34:13.659Z,100371.56
2023-04-14T10:36:41.526Z,100375.84
2023-04-14T10:39:11.789Z,100371.28
2023-04-14T10:41:47.449Z,100374.78
2023-04-14T10:44:35.139Z,100354.88
2023-04-14T10:47:05.639Z,100355.44
2023-04-14T10:49:41.018Z,100354.91
2023-04-14T10:52:17.228Z,100374.00
2023-04-14T10:55:01.524Z,100362.19
2023-04-14T10:57:29.654Z,100343.09
2023-04-14T11:00:00.826Z,100355.72
2023-04-14T11:02:35.560Z,100351.97
2023-04-14T11:05:11.895Z,100357.88
2023-04-14T11:07:46.248Z,100361.09
2023-04-14T11:10:22.648Z,100355.72
2023-04-14T11:13:03.983Z,100354.34
2023-04-14T11:15:52.566Z,100354.31
2023-04-14T11:18:37.937Z,100358.63
2023-04-14T11:21:06.980Z,100357.78
2023-04-14T11:23:35.803Z,100361.81
2023-04-14T11:26:05.956Z,100361.75
2023-04-14T11:28:35.165Z,100354.47
2023-04-14T11:31:08.420Z,100356.59
2023-04-14T11:33:38.335Z,100353.34
2023-04-14T11:36:08.258Z,100358.16
2023-04-14T11:38:40.749Z,100361.13
2023-04-14T11:41:09.246Z,100357.06
2023-04-14T11:43:38.636Z,100357.59
2023-04-14T11:46:08.051Z,100344.47
2023-04-14T11:48:35.580Z,100347.16
2023-04-14T11:51:03.980Z,100341.00
2023-04-14T11:53:32.369Z,100343.16
2023-04-14T11:56:00.785Z,100341.81
2023-04-14T11:58:28.937Z,100351.78
2023-04-14T12:00:59.425Z,100343.69
2023-04-14T12:03:29.120Z,100342.88
2023-04-14T12:06:01.384Z,100342.88
2023-04-14T12:08:33.422Z,100332.69
2023-04-14T12:11:16.476Z,100339.97
2023-04-14T12:13:45.755Z,100333.78
2023-04-14T12:16:14.817Z,100334.91
2023-04-14T12:18:43.103Z,100334.16
2023-04-14T12:21:11.979Z,100329.59
2023-04-14T12:23:41.599Z,100332.84
2023-04-14T12:26:12.604Z,100320.22
2023-04-14T12:28:41.604Z,100324.81
2023-04-14T12:31:10.425Z,100323.47
2023-04-14T12:33:37.775Z,100315.94
2023-04-14T12:36:12.384Z,100318.13
2023-04-14T12:38:39.585Z,100322.66
2023-04-14T12:41:06.609Z,100313.28
2023-04-14T12:43:38.671Z,100302.78
2023-04-14T12:46:06.318Z,100308.69
2023-04-14T12:48:45.867Z,100312.72
2023-04-14T12:51:18.477Z,100307.88
2023-04-14T12:53:48.054Z,100302.75
2023-04-14T12:56:19.601Z,100303.28
2023-04-14T12:58:48.376Z,100304.59
2023-04-14T13:01:19.361Z,100298.94
2023-04-14T13:03:51.259Z,100305.41
2023-04-14T13:06:21.498Z,100299.97
2023-04-14T13:08:50.674Z,100298.06
2023-04-14T13:11:20.080Z,100291.09
2023-04-14T13:13:47.706Z,100298.06
2023-04-14T13:16:18.087Z,100291.59
2023-04-14T13:18:47.724Z,100296.44
2023-04-14T13:21:14.873Z,100293.22
2023-04-14T13:23:41.963Z,100287.81
2023-04-14T13:26:09.064Z,100290.22
2023-04-14T13:28:36.767Z,100279.22
2023-04-14T13:31:04.276Z,100271.44
2023-04-14T13:33:32.736Z,100269.84
2023-04-14T13:36:02.389Z,100275.75
2023-04-14T13:38:29.771Z,100268.75
2023-04-14T13:40:56.921Z,100266.63
2023-04-14T13:43:24.637Z,100272.56
2023-04-14T13:45:51.937Z,100266.94
2023-04-14T13:48:19.297Z,100264.03
2023-04-14T13:50:46.415Z,100265.66
2023-04-14T13:53:13.448Z,100261.94
2023-04-14T13:55:41.327Z,100258.97
2023-04-14T13:58:08.150Z,100250.66
2023-04-14T14:00:35.293Z,100256.03
2023-04-14T14:03:02.548Z,100257.38
2023-04-14T14:05:29.606Z,100257.66
2023-04-14T14:07:57.596Z,100259.53
2023-04-14T14:10:24.629Z,100276.19
2023-04-14T14:12:51.680Z,100267.88
2023-04-14T14:15:19.035Z,100260.34
2023-04-14T14:17:46.172Z,100262.75
2023-04-14T14:20:13.278Z,100251.47
2023-04-14T14:22:40.487Z,100249.06
2023-04-14T14:25:19.150Z,100253.09
2023-04-14T14:27:47.556Z,100250.13
2023-04-14T14:30:14.623Z,100246.66
2023-04-14T14:32:41.707Z,100238.31
2023-04-14T14:35:09.480Z,100235.63
2023-04-14T14:37:36.564Z,100231.31
2023-04-14T14:40:04.199Z,100242.06
2023-04-14T14:42:31.542Z,100235.06
2023-04-14T14:45:01.004Z,100237.22
2023-04-14T14:47:29.235Z,100234.00
2023-04-14T14:50:02.370Z,100231.03
2023-04-14T14:52:34.691Z,100230.50
2023-04-14T14:55:02.416Z,100233.19
2023-04-14T14:57:30.660Z,100232.91
2023-04-14T14:59:58.359Z,100234.25
2023-04-14T15:02:25.757Z,100231.03
2023-04-14T15:04:54.301Z,100224.28
2023-04-14T15:07:21.512Z,100220.81
2023-04-14T15:09:50.118Z,100228.59
2023-04-14T15:12:18.046Z,100240.38
2023-04-14T15:14:45.198Z,100237.13
2023-04-14T15:17:12.219Z,100238.19
2023-04-14T15:19:39.415Z,100243.03
2023-04-14T15:22:07.035Z,100238.16
2023-04-14T15:24:34.006Z,100233.84
2023-04-14T15:27:02.544Z,100243.50
2023-04-14T15:29:30.428Z,100239.19
2023-04-14T15:31:58.410Z,100242.38
2023-04-14T15:34:25.998Z,100243.16
2023-04-14T15:36:53.139Z,100235.34
2023-04-14T15:39:20.220Z,100237.47
2023-04-14T15:41:49.179Z,100247.38
2023-04-14T15:44:16.510Z,100244.97
2023-04-14T15:46:43.622Z,100253.00
2023-04-14T15:49:10.893Z,100256.75
2023-04-14T15:51:37.820Z,100258.06
2023-04-14T15:54:06.036Z,100257.00
2023-04-14T15:56:32.894Z,100266.38
2023-04-14T15:58:59.960Z,100271.22
2023-04-14T16:01:26.930Z,100262.34
2023-04-14T16:03:54.131Z,100261.50
2023-04-14T16:06:21.263Z,100257.75
2023-04-14T16:08:48.195Z,100270.06
2023-04-14T16:11:19.294Z,100260.38
2023-04-14T16:13:46.531Z,100248.50
2023-04-14T16:16:16.028Z,100248.25
2023-04-14T16:18:43.268Z,100252.00
2023-04-14T16:21:10.454Z,100248.47
2023-04-14T16:23:37.485Z,100247.38
2023-04-14T16:26:04.732Z,100241.97
2023-04-14T16:28:32.349Z,100245.97
2023-04-14T16:31:05.577Z,100253.72
2023-04-14T16:33:32.655Z,100240.84
2023-04-14T16:36:07.427Z,100246.72
2023-04-14T16:38:34.448Z,100256.09
2023-04-14T16:41:02.672Z,100255.03
2023-04-14T16:43:29.924Z,100253.66
2023-04-14T16:46:07.821Z,100246.16
2023-04-14T16:48:36.955Z,100249.09
2023-04-14T16:51:08.982Z,100245.06
2023-04-14T16:53:40.786Z,100241.88
2023-04-14T16:56:11.625Z,100236.22
2023-04-14T16:58:39.834Z,100242.91
2023-04-14T17:01:07.549Z,100249.88
2023-04-14T17:03:35.650Z,100244.53
2023-04-14T17:06:03.479Z,100244.53
2023-04-14T17:08:30.604Z,100238.59
2023-04-14T17:10:57.922Z,100245.31
2023-04-14T17:13:24.941Z,100243.97
2023-04-14T17:18:22.237Z,100267.03
2023-04-14T17:20:49.322Z,100262.19
2023-04-14T17:23:17.300Z,100258.94
2023-04-14T17:25:46.316Z,100261.34
2023-04-14T17:28:13.720Z,100257.03
2023-04-14T17:30:40.775Z,100241.72
2023-04-14T17:33:08.856Z,100240.06
2023-04-14T17:35:36.664Z,100244.63
2023-04-14T17:38:03.948Z,100236.00
2023-04-14T17:40:31.144Z,100244.84
2023-04-14T17:42:58.499Z,100247.22
2023-04-14T17:45:26.629Z,100248.28
2023-04-14T17:47:53.910Z,100245.81
2023-04-14T17:50:22.302Z,100260.84
2023-04-14T17:52:51.120Z,100246.34
2023-04-14T17:55:20.218Z,100255.19
2023-04-14T17:57:47.136Z,100263.72
2023-04-14T18:00:14.807Z,100264.53
2023-04-14T18:02:42.386Z,100264.00
2023-04-14T18:05:11.225Z,100261.06
2023-04-14T18:07:38.441Z,100252.16
2023-04-14T18:10:06.470Z,100267.97
2023-04-14T18:12:33.421Z,100268.22
2023-04-14T18:15:01.610Z,100245.66
2023-04-14T18:17:29.081Z,100252.34
2023-04-14T18:19:58.904Z,100261.44
2023-04-14T18:22:27.336Z,100273.47
2023-04-14T18:24:54.585Z,100259.50
2023-04-14T18:29:52.934Z,100264.88
2023-04-14T18:32:20.861Z,100267.81
2023-04-14T18:34:48.267Z,100270.72
2023-04-14T18:37:15.849Z,100264.56
2023-04-14T18:39:43.795Z,100262.44
2023-04-14T18:42:11.356Z,100267.50
2023-04-14T18:44:38.215Z,100272.06
2023-04-14T18:47:05.298Z,100263.19
2023-04-14T18:49:32.463Z,100251.38
2023-04-14T18:51:59.604Z,100253.50
2023-04-14T18:54:26.510Z,100255.69
2023-04-14T18:56:53.729Z,100239.84
2023-04-14T18:59:21.463Z,100241.16
2023-04-14T19:01:48.477Z,100241.72
2023-04-14T19:04:15.586Z,100232.06
2023-04-14T19:06:42.617Z,100221.06
2023-04-14T19:09:09.917Z,100224.81
2023-04-14T19:11:36.939Z,100233.66
2023-04-14T19:14:04.952Z,100226.38
2023-04-14T19:16:32.631Z,100218.03
2023-04-14T19:18:59.981Z,100204.34
2023-04-14T19:21:27.346Z,100211.56
2023-04-14T19:23:57.249Z,100217.97
2023-04-14T19:26:24.608Z,100207.78
2023-04-14T19:28:52.994Z,100226.53
2023-04-14T19:31:21.531Z,100213.13
2023-04-14T19:33:49.160Z,100216.63
2023-04-14T19:36:17.534Z,100211.81
2023-04-14T19:38:45.682Z,100204.03
2023-04-14T19:41:12.827Z,100212.94
2023-04-14T19:43:39.820Z,100213.47
2023-04-14T19:46:08.148Z,100215.59
2023-04-14T19:48:35.099Z,100212.13
2023-04-14T19:51:03.420Z,100223.13
2023-04-14T19:53:30.744Z,100219.41
2023-04-14T19:55:58.767Z,100237.09
2023-04-14T19:58:28.468Z,100236.53
2023-04-14T20:00:57.463Z,100233.59
2023-04-14T20:03:25.808Z,100235.66
2023-04-14T20:05:55.714Z,100232.94
2023-04-14T20:08:24.036Z,100229.69
2023-04-14T20:10:54.096Z,100230.81
2023-04-14T20:13:23.133Z,100215.00
2023-04-14T20:15:54.212Z,100220.09
2023-04-14T20:18:22.511Z,100213.38
2023-04-14T20:20:50.268Z,100205.66
2023-04-14T20:23:17.404Z,100212.63
2023-04-14T20:25:45.520Z,100202.72
2023-04-14T20:28:14.062Z,100199.78
2023-04-14T20:30:42.779Z,100190.97
2023-04-14T20:33:10.754Z,100191.25
2023-04-14T20:35:43.363Z,100194.94
2023-04-14T20:38:15.006Z,100200.59
2023-04-14T20:40:42.524Z,100181.06
2023-04-14T20:43:09.837Z,100189.38
2023-04-14T20:45:37.088Z,100194.75
2023-04-14T20:48:04.417Z,100186.72
2023-04-14T20:50:32.997Z,100185.66
2023-04-14T20:53:00.597Z,100185.38
2023-04-14T20:55:27.557Z,100180.59
2023-04-14T20:57:54.732Z,100184.88
2023-04-14T21:00:21.613Z,100180.59
2023-04-14T21:02:49.233Z,100181.66
2023-04-14T21:05:17.675Z,100175.50
2023-04-14T21:07:45.930Z,100179.78
2023-04-14T21:10:15.268Z,100175.25
2023-04-14T21:15:24.669Z,100173.13
2023-04-14T21:15:49.640Z,100174.16
2023-04-14T21:18:16.551Z,100162.09
2023-04-14T21:20:43.484Z,100166.09
2023-04-14T21:23:10.823Z,100165.03
2023-04-14T21:25:37.778Z,100158.06
2023-04-14T21:28:05.165Z,100164.47
2023-04-14T21:30:32.332Z,100161.28
2023-04-14T21:32:59.505Z,100151.91
2023-04-14T21:35:26.681Z,100156.75
2023-04-14T21:37:53.716Z,100150.59
2023-04-14T21:40:21.529Z,100159.97
2023-04-14T21:42:48.432Z,100147.91
2023-04-14T21:45:15.455Z,100140.94
2023-04-14T21:47:42.927Z,100143.91
2023-04-14T21:50:10.535Z,100137.75
2023-04-14T21:52:37.454Z,100117.09
2023-04-14T21:55:05.247Z,100124.91
2023-04-14T21:57:48.555Z,100128.94
2023-04-14T22:00:18.084Z,100126.78
2023-04-14T22:02:46.101Z,100127.84
2023-04-14T22:05:14.913Z,100127.03
2023-04-14T22:07:42.247Z,100120.88
2023-04-14T22:10:09.953Z,100125.72
2023-04-14T22:12:37.695Z,100105.88
2023-04-14T22:15:06.496Z,100113.34
2023-04-14T22:17:33.714Z,100115.25
2023-04-14T22:20:00.931Z,100106.41
2023-04-14T22:22:28.624Z,100106.16
2023-04-14T22:24:55.982Z,100106.94
2023-04-14T22:27:23.543Z,100105.63
2023-04-14T22:29:50.576Z,100100.50
2023-04-14T22:32:17.560Z,100107.22
2023-04-14T22:34:44.639Z,100102.69
2023-04-14T22:37:12.125Z,100100.25
2023-04-14T22:39:39.258Z,100109.66
2023-04-14T22:42:06.344Z,100105.09
2023-04-14T22:44:33.264Z,100104.53
2023-04-14T22:47:01.782Z,100113.13
2023-04-14T22:49:28.756Z,100105.34
2023-04-14T22:51:56.505Z,100104.84
2023-04-14T22:54:23.535Z,100104.03
2023-04-14T22:56:50.971Z,100100.53
2023-04-14T22:59:18.136Z,100112.38
2023-04-14T23:01:45.507Z,100100.28
2023-04-14T23:04:12.610Z,100107.00
2023-04-14T23:06:39.656Z,100102.19
2023-04-14T23:09:06.598Z,100114.28
2023-04-14T23:11:33.764Z,100101.44
2023-04-14T23:14:00.900Z,100103.03
2023-04-14T23:16:27.980Z,100111.63
2023-04-14T23:18:55.421Z,100108.94
2023-04-14T23:21:22.833Z,100092.84
2023-04-14T23:23:51.038Z,100100.88
2023-04-14T23:26:19.628Z,100106.53
2023-04-14T23:28:47.198Z,100103.56
2023-04-14T23:31:14.425Z,100108.09
2023-04-14T23:33:41.277Z,100110.22
2023-04-14T23:36:08.412Z,100100.88
2023-04-14T23:38:35.348Z,100109.97
2023-04-14T23:41:02.852Z,100104.88
2023-04-14T23:43:29.772Z,100100.34
2023-04-14T23:45:57.933Z,100098.72
2023-04-14T23:48:26.904Z,100093.34
2023-04-14T23:51:00.978Z,100093.88
2023-04-14T23:53:40.657Z,100097.88
2023-04-14T23:56:07.987Z,100087.66
2023-04-14T23:58:34.940Z,100096.50
